Time;durP1;ratioP1;P1;durP2;ratioP2;P2;SDS_P1;SDS_P2;PMS_P1;PMS_P2;Temp;Humidity;BMP_temperature;BMP_pressure;BME280_temperature;BME280_humidity;BME280_pressure;Samples;Min_cycle;Max_cycle;Signal;HPM_P1;HPM_P2
2022/07/12 00:00:57;;;;;;;3.85;2.95;;;15.60;99.90;;;;;;6310122;22;20018;-81
2022/07/12 00:03:23;;;;;;;4.90;2.90;;;15.60;99.90;;;;;;6308761;22;20018;-81
2022/07/12 00:05:49;;;;;;;4.67;3.33;;;15.60;99.90;;;;;;6284199;22;20018;-79
2022/07/12 00:08:15;;;;;;;4.28;3.05;;;15.60;99.90;;;;;;6284575;22;20088;-81
2022/07/12 00:10:41;;;;;;;4.35;3.20;;;15.60;99.90;;;;;;6304573;22;20022;-81
2022/07/12 00:13:07;;;;;;;4.68;3.80;;;15.50;99.90;;;;;;6304236;22;20014;-80
2022/07/12 00:15:32;;;;;;;4.63;3.42;;;15.50;99.90;;;;;;6279487;22;20054;-83
2022/07/12 00:17:58;;;;;;;4.68;3.50;;;15.40;99.90;;;;;;6297124;22;20011;-82
2022/07/12 00:20:24;;;;;;;4.50;3.35;;;15.30;99.90;;;;;;6278378;22;20038;-84
2022/07/12 00:22:50;;;;;;;3.75;3.03;;;15.30;99.90;;;;;;6269867;22;20027;-82
2022/07/12 00:25:16;;;;;;;4.40;3.13;;;15.30;99.90;;;;;;6254334;22;20831;-82
2022/07/12 00:27:42;;;;;;;3.10;2.60;;;15.30;99.90;;;;;;6292814;22;20022;-79
2022/07/12 00:30:08;;;;;;;3.70;2.92;;;15.30;99.90;;;;;;6330285;22;20019;-82
2022/07/12 00:32:36;;;;;;;3.97;3.40;;;15.30;99.90;;;;;;6304024;22;20018;-80
2022/07/12 00:35:02;;;;;;;3.83;3.13;;;15.30;99.90;;;;;;6321250;22;20022;-78
2022/07/12 00:37:28;;;;;;;3.72;2.80;;;15.40;99.90;;;;;;6303183;22;20465;-81
2022/07/12 00:39:55;;;;;;;3.15;2.50;;;15.30;99.90;;;;;;6295063;22;20011;-80
2022/07/12 00:42:21;;;;;;;3.03;2.33;;;15.30;99.90;;;;;;6330432;22;20033;-81
2022/07/12 00:44:47;;;;;;;3.63;2.90;;;15.30;99.90;;;;;;6294070;22;20019;-81
2022/07/12 00:47:46;;;;;;;4.00;2.85;;;15.30;99.90;;;;;;6330181;22;20026;-79
2022/07/12 00:50:21;;;;;;;3.95;3.03;;;15.30;99.90;;;;;;6314934;22;20042;-82
2022/07/12 00:52:49;;;;;;;4.60;3.72;;;15.30;99.90;;;;;;6319933;22;20034;-81
2022/07/12 00:55:17;;;;;;;5.10;3.47;;;15.20;99.90;;;;;;6279074;22;20006;-80
2022/07/12 00:57:44;;;;;;;5.43;3.80;;;15.20;99.90;;;;;;6332062;22;20061;-81
2022/07/12 01:00:12;;;;;;;4.07;3.30;;;15.20;99.90;;;;;;6299005;22;20053;-79
2022/07/12 01:02:38;;;;;;;4.90;4.00;;;15.20;99.90;;;;;;6304839;22;20453;-82
2022/07/12 01:05:06;;;;;;;5.00;4.33;;;15.10;99.90;;;;;;6330214;22;20094;-78
2022/07/12 01:07:32;;;;;;;5.68;3.97;;;15.10;99.90;;;;;;6304212;22;20015;-81
2022/07/12 01:09:59;;;;;;;4.73;4.10;;;15.10;99.90;;;;;;6322055;22;20076;-79
2022/07/12 01:12:25;;;;;;;4.63;4.10;;;15.10;99.90;;;;;;6275988;22;20439;-80
2022/07/12 01:14:52;;;;;;;4.90;3.95;;;15.10;99.90;;;;;;6320161;22;20468;-82
2022/07/12 01:17:23;;;;;;;4.43;3.88;;;15.20;99.90;;;;;;6304367;22;20083;-82
2022/07/12 01:19:51;;;;;;;4.78;3.90;;;15.20;99.90;;;;;;6292695;22;20018;-81
2022/07/12 01:22:18;;;;;;;5.03;3.85;;;15.20;99.90;;;;;;6330301;22;20054;-81
2022/07/12 01:24:47;;;;;;;4.25;3.47;;;15.20;99.90;;;;;;6293410;22;20509;-79
2022/07/12 01:27:13;;;;;;;5.13;4.13;;;15.20;99.90;;;;;;6330095;22;20390;-80
2022/07/12 01:29:40;;;;;;;4.03;3.63;;;15.20;99.90;;;;;;6317342;22;20015;-82
2022/07/12 01:32:24;;;;;;;3.90;3.10;;;15.20;99.90;;;;;;6329941;22;20021;-83
2022/07/12 01:34:52;;;;;;;4.05;3.47;;;15.30;99.90;;;;;;6327617;22;20313;-83
2022/07/12 01:37:19;;;;;;;4.65;3.38;;;15.20;99.90;;;;;;6278416;22;20021;-81
2022/07/12 01:39:46;;;;;;;4.10;3.45;;;15.30;99.90;;;;;;6319186;22;20019;-83
2022/07/12 01:42:12;;;;;;;;;;;15.30;99.90;;;;;;6305034;22;20019;-82
2022/07/12 01:44:38;;;;;;;4.30;2.80;;;15.30;99.90;;;;;;6291692;22;19989;-82
2022/07/12 01:47:04;;;;;;;4.05;2.78;;;15.30;99.90;;;;;;6303848;22;20023;-82
2022/07/12 01:49:30;;;;;;;4.20;3.05;;;15.30;99.90;;;;;;6301506;22;20014;-83
2022/07/12 01:51:58;;;;;;;3.83;3.08;;;15.30;99.90;;;;;;6295121;22;20022;-82
2022/07/12 01:54:27;;;;;;;3.28;2.40;;;15.30;99.90;;;;;;6330124;22;20436;-82
2022/07/12 01:56:54;;;;;;;3.25;2.50;;;15.30;99.90;;;;;;6294436;22;20068;-82
2022/07/12 01:59:20;;;;;;;3.10;2.53;;;15.30;99.90;;;;;;6303188;22;20436;-82
2022/07/12 02:01:46;;;;;;;3.13;2.42;;;15.30;99.90;;;;;;6319273;22;20015;-84
2022/07/12 02:04:16;;;;;;;3.35;2.75;;;15.40;99.90;;;;;;6326918;22;20024;-82
2022/07/12 02:09:17;;;;;;;3.40;2.75;;;15.30;99.90;;;;;;6350599;22;20030;-86
2022/07/12 02:11:46;;;;;;;3.72;2.88;;;15.30;99.90;;;;;;6335064;22;20026;-85
2022/07/12 02:14:14;;;;;;;3.58;2.78;;;15.30;99.90;;;;;;6282279;22;20513;-85
2022/07/12 02:16:41;;;;;;;4.57;2.90;;;15.30;99.90;;;;;;6309524;22;20022;-86
2022/07/12 02:19:12;;;;;;;4.10;2.45;;;15.30;99.90;;;;;;6336589;22;20458;-84
2022/07/12 02:21:38;;;;;;;4.45;3.40;;;15.30;99.90;;;;;;6338437;22;20453;-85
2022/07/12 02:24:05;;;;;;;4.13;3.08;;;15.30;99.90;;;;;;6336532;22;20022;-86
2022/07/12 02:26:37;;;;;;;4.07;3.13;;;15.30;99.90;;;;;;6311058;22;20060;-85
2022/07/12 02:29:04;;;;;;;4.57;3.05;;;15.30;99.90;;;;;;6315138;22;20086;-86
2022/07/12 02:31:31;;;;;;;4.63;3.55;;;15.30;99.90;;;;;;6338772;22;20014;-83
2022/07/12 02:33:58;;;;;;;4.53;3.55;;;15.30;99.90;;;;;;6334269;22;20014;-82
2022/07/12 02:36:24;;;;;;;4.45;3.30;;;15.30;99.90;;;;;;6308126;22;20443;-86
2022/07/12 02:38:51;;;;;;;3.83;3.33;;;15.30;99.90;;;;;;6308040;22;20370;-84
2022/07/12 02:41:17;;;;;;;4.00;3.15;;;15.20;99.90;;;;;;6308363;22;20480;-86
2022/07/12 02:43:43;;;;;;;4.63;3.97;;;15.20;99.90;;;;;;6309074;22;20018;-82
2022/07/12 02:46:11;;;;;;;4.85;3.53;;;15.20;99.90;;;;;;6344775;22;20018;-87
2022/07/12 02:48:38;;;;;;;3.60;3.10;;;15.20;99.90;;;;;;6347562;22;20018;-86
2022/07/12 02:51:05;;;;;;;5.25;3.45;;;15.20;99.90;;;;;;6312676;22;20078;-85
2022/07/12 02:53:33;;;;;;;5.10;3.65;;;15.20;99.90;;;;;;6309374;22;20018;-83
2022/07/12 02:55:59;;;;;;;6.13;4.00;;;15.20;99.90;;;;;;6309136;22;20020;-83
2022/07/12 02:58:27;;;;;;;5.43;4.23;;;15.10;99.90;;;;;;6307663;22;20025;-85
2022/07/12 03:00:52;;;;;;;;;;;15.10;99.90;;;;;;6258175;22;20463;-82
2022/07/12 03:03:19;;;;;;;6.32;4.20;;;15.10;99.90;;;;;;6307021;22;20335;-84
2022/07/12 03:05:45;;;;;;;4.87;3.60;;;15.00;99.90;;;;;;6333974;22;20727;-83
2022/07/12 03:08:12;;;;;;;4.40;3.50;;;15.00;99.90;;;;;;6331935;22;20053;-85
2022/07/12 03:10:44;;;;;;;4.70;3.60;;;15.00;99.90;;;;;;6310129;22;20026;-84
2022/07/12 03:13:10;;;;;;;4.57;3.63;;;15.00;99.90;;;;;;6308231;22;20076;-83
2022/07/12 03:15:36;;;;;;;5.60;4.10;;;15.00;99.90;;;;;;6335180;22;20014;-84
2022/07/12 03:18:02;;;;;;;6.43;4.35;;;15.00;99.90;;;;;;6310135;22;20018;-86
2022/07/12 03:20:30;;;;;;;5.88;4.10;;;15.10;99.90;;;;;;6335419;22;20022;-85
2022/07/12 03:22:59;;;;;;;4.85;3.40;;;15.10;99.90;;;;;;6336876;22;20022;-84
2022/07/12 03:25:25;;;;;;;4.68;4.10;;;15.10;99.90;;;;;;6311038;22;20090;-83
2022/07/12 03:27:51;;;;;;;7.35;4.80;;;15.10;99.90;;;;;;6336347;22;20746;-81
2022/07/12 03:30:17;;;;;;;5.15;4.00;;;15.10;99.90;;;;;;6310873;22;20018;-84
2022/07/12 03:32:44;;;;;;;5.90;4.60;;;15.10;99.90;;;;;;6314309;22;20014;-84
2022/07/12 03:35:11;;;;;;;5.55;4.63;;;15.10;99.90;;;;;;6288406;22;20025;-86
2022/07/12 03:37:49;;;;;;;5.22;4.68;;;15.10;99.90;;;;;;6313771;22;20010;-83
2022/07/12 03:40:19;;;;;;;5.50;4.57;;;15.60;99.90;;;;;;6340735;22;20033;-84
2022/07/12 03:42:48;;;;;;;5.38;4.43;;;14.60;99.90;;;;;;6288416;22;20022;-81
2022/07/12 03:45:14;;;;;;;8.02;5.57;;;15.00;99.90;;;;;;6311653;22;20367;-85
2022/07/12 03:47:41;;;;;;;6.60;4.88;;;15.00;99.90;;;;;;6285303;22;20025;-86
2022/07/12 03:50:10;;;;;;;8.02;5.10;;;15.00;99.90;;;;;;6283921;22;20022;-84
2022/07/12 03:52:37;;;;;;;6.25;4.85;;;15.00;99.90;;;;;;6311402;22;20495;-84
2022/07/12 03:55:04;;;;;;;8.30;5.25;;;15.10;99.90;;;;;;6286137;22;20418;-85
2022/07/12 03:57:30;;;;;;;6.50;5.40;;;15.00;99.90;;;;;;6311342;22;20181;-85
2022/07/12 03:59:57;;;;;;;6.50;5.10;;;15.00;99.90;;;;;;6312041;22;20135;-84
2022/07/12 04:02:24;;;;;;;6.30;5.45;;;15.10;99.90;;;;;;6312687;22;20018;-81
2022/07/12 04:04:58;;;;;;;16.85;6.25;;;15.10;99.90;;;;;;6336921;22;20140;-82
2022/07/12 04:07:24;;;;;;;;;;;15.10;99.90;;;;;;6269388;22;20049;-85
2022/07/12 04:09:58;;;;;;;6.40;5.32;;;15.10;99.90;;;;;;6322809;22;19914;-84
2022/07/12 04:12:24;;;;;;;8.90;5.47;;;15.10;99.90;;;;;;6320020;22;20374;-83
2022/07/12 04:14:54;;;;;;;10.13;6.38;;;15.00;99.90;;;;;;6290738;22;20460;-83
2022/07/12 04:17:27;;;;;;;6.85;5.65;;;15.00;99.90;;;;;;6343814;22;20106;-85
2022/07/12 04:20:00;;;;;;;6.70;5.85;;;15.00;99.90;;;;;;6315721;22;20473;-85
2022/07/12 04:22:26;;;;;;;;;;;15.10;99.90;;;;;;6310897;22;20644;-84
2022/07/12 04:24:52;;;;;;;10.90;6.13;;;15.00;99.90;;;;;;6318002;22;19925;-85
2022/07/12 04:27:26;;;;;;;8.57;6.38;;;15.10;99.90;;;;;;6272227;22;20215;-87
2022/07/12 04:29:56;;;;;;;10.98;6.82;;;15.10;99.90;;;;;;6368874;22;20042;-86
2022/07/12 04:32:22;;;;;;;8.75;6.38;;;15.10;99.90;;;;;;6340017;22;20028;-87
2022/07/12 04:35:07;;;;;;;7.45;5.88;;;15.10;99.90;;;;;;6313708;22;20014;-88
2022/07/12 04:37:34;;;;;;;6.50;5.30;;;15.10;99.90;;;;;;6312409;22;20025;-85
2022/07/12 04:40:01;;;;;;;9.15;5.88;;;15.10;99.90;;;;;;6336747;22;20014;-85
2022/07/12 04:42:27;;;;;;;6.80;5.53;;;15.10;99.90;;;;;;6336982;22;20090;-84
2022/07/12 04:45:02;;;;;;;7.32;5.93;;;15.10;99.90;;;;;;6364516;22;20018;-81
2022/07/12 04:47:29;;;;;;;8.55;5.88;;;15.10;99.90;;;;;;6336424;22;20014;-81
2022/07/12 04:49:55;;;;;;;16.33;6.80;;;15.20;99.90;;;;;;6334741;22;20107;-83
2022/07/12 04:52:21;;;;;;;11.02;6.05;;;15.20;99.90;;;;;;6310397;22;20022;-82
2022/07/12 04:54:47;;;;;;;9.18;6.07;;;15.10;99.90;;;;;;6310343;22;20389;-85
2022/07/12 04:57:13;;;;;;;8.50;5.93;;;15.10;99.90;;;;;;6311223;22;20045;-86
2022/07/12 04:59:39;;;;;;;12.75;6.20;;;15.10;99.90;;;;;;6309519;22;20011;-84
2022/07/12 05:02:05;;;;;;;18.52;5.90;;;15.10;99.90;;;;;;6283978;22;20097;-83
2022/07/12 05:04:33;;;;;;;8.70;5.70;;;15.00;99.90;;;;;;6283271;22;20068;-83
2022/07/12 05:06:59;;;;;;;8.02;6.13;;;15.00;99.90;;;;;;6310148;22;20029;-83
2022/07/12 05:09:25;;;;;;;7.28;5.53;;;15.10;99.90;;;;;;6276611;22;20015;-83
2022/07/12 05:11:51;;;;;;;7.10;5.38;;;15.00;99.90;;;;;;6279815;22;20056;-86
2022/07/12 05:14:17;;;;;;;7.03;4.68;;;15.00;99.90;;;;;;6277501;22;20653;-85
2022/07/12 05:16:43;;;;;;;5.93;4.50;;;15.00;99.90;;;;;;6303378;22;20038;-86
2022/07/12 05:19:10;;;;;;;5.95;4.60;;;15.10;99.90;;;;;;6253351;22;20459;-84
2022/07/12 05:21:36;;;;;;;6.13;4.88;;;15.10;99.90;;;;;;6304973;22;20523;-85
2022/07/12 05:24:03;;;;;;;5.65;4.47;;;15.10;99.90;;;;;;6305953;22;20175;-87
2022/07/12 05:26:29;;;;;;;6.50;5.43;;;15.20;99.90;;;;;;6306093;22;20018;-86
2022/07/12 05:28:56;;;;;;;8.38;5.38;;;15.20;99.90;;;;;;6301011;22;20105;-84
2022/07/12 05:31:23;;;;;;;6.75;5.35;;;15.30;99.90;;;;;;6280294;22;20015;-82
2022/07/12 05:33:49;;;;;;;6.07;4.47;;;15.30;99.90;;;;;;6302982;22;20021;-87
2022/07/12 05:36:15;;;;;;;6.13;4.18;;;15.30;99.90;;;;;;6330477;22;20019;-87
2022/07/12 05:38:42;;;;;;;5.28;3.85;;;15.30;99.90;;;;;;6279913;22;20007;-86
2022/07/12 05:41:08;;;;;;;4.72;3.47;;;15.30;99.90;;;;;;6255098;22;20019;-86
2022/07/12 05:43:34;;;;;;;5.30;3.92;;;15.40;99.90;;;;;;6280188;22;20023;-83
2022/07/12 05:46:00;;;;;;;13.63;4.97;;;15.40;99.90;;;;;;6279402;22;20388;-83
2022/07/12 05:48:26;;;;;;;6.15;4.78;;;15.40;99.90;;;;;;6278412;22;20064;-87
2022/07/12 05:50:52;;;;;;;6.50;5.00;;;15.50;99.90;;;;;;6277958;22;20088;-81
2022/07/12 05:53:37;;;;;;;6.63;5.10;;;15.40;99.90;;;;;;6330671;22;20551;-84
2022/07/12 05:56:03;;;;;;;5.70;5.05;;;15.50;99.90;;;;;;6310705;22;20019;-83
2022/07/12 05:58:30;;;;;;;6.22;4.72;;;15.50;99.90;;;;;;6290783;22;20152;-88
2022/07/12 06:00:57;;;;;;;7.57;5.30;;;15.50;99.90;;;;;;6307373;22;20479;-87
2022/07/12 06:03:24;;;;;;;6.90;5.32;;;15.50;99.90;;;;;;6278265;22;20019;-81
2022/07/12 06:05:50;;;;;;;;;;;15.60;99.90;;;;;;6304355;22;20015;-83
2022/07/12 06:08:17;;;;;;;8.13;5.25;;;15.60;99.90;;;;;;6331415;22;19982;-83
2022/07/12 06:10:43;;;;;;;5.78;4.45;;;15.60;99.90;;;;;;6278532;22;20153;-82
2022/07/12 06:13:09;;;;;;;8.40;5.47;;;15.70;99.90;;;;;;6278171;22;20102;-84
2022/07/12 06:15:37;;;;;;;5.50;4.43;;;15.70;99.90;;;;;;6304425;22;20050;-85
2022/07/12 06:18:08;;;;;;;5.85;4.53;;;15.80;99.90;;;;;;6280332;22;20106;-81
2022/07/12 06:20:34;;;;;;;7.40;4.50;;;15.90;99.90;;;;;;6302962;22;20493;-83
2022/07/12 06:23:00;;;;;;;7.85;5.28;;;15.90;99.90;;;;;;6305009;22;20022;-86
2022/07/12 06:25:27;;;;;;;7.45;5.40;;;15.90;99.90;;;;;;6305216;22;20050;-82
2022/07/12 06:27:54;;;;;;;6.10;4.43;;;16.00;99.90;;;;;;6304146;22;20045;-84
2022/07/12 06:30:21;;;;;;;5.97;5.05;;;16.00;99.90;;;;;;6303745;22;20023;-83
2022/07/12 06:33:06;;;;;;;6.38;4.60;;;16.10;99.90;;;;;;6303456;22;20010;-86
2022/07/12 06:35:33;;;;;;;6.38;4.95;;;16.10;99.90;;;;;;6303070;22;20025;-84
2022/07/12 06:38:00;;;;;;;8.48;4.65;;;16.20;99.90;;;;;;6330400;22;20041;-82
2022/07/12 06:40:26;;;;;;;5.43;4.47;;;16.20;99.90;;;;;;6332260;22;20015;-84
2022/07/12 06:42:52;;;;;;;5.90;4.75;;;16.40;99.90;;;;;;6279657;22;20029;-85
2022/07/12 06:45:18;;;;;;;5.43;4.15;;;16.60;99.90;;;;;;6279755;22;20057;-84
2022/07/12 06:47:44;;;;;;;6.60;4.68;;;16.80;99.90;;;;;;6305418;22;20026;-87
2022/07/12 06:50:12;;;;;;;5.83;4.87;;;17.00;99.90;;;;;;6303745;22;20011;-84
2022/07/12 06:52:56;;;;;;;5.70;4.82;;;17.20;99.90;;;;;;6331627;22;20075;-84
2022/07/12 06:55:22;;;;;;;5.28;4.35;;;17.40;99.90;;;;;;6279350;22;20014;-87
2022/07/12 06:57:49;;;;;;;6.25;5.55;;;17.60;99.90;;;;;;6304763;22;20071;-85
2022/07/12 07:00:15;;;;;;;7.15;5.18;;;17.80;99.90;;;;;;6333127;22;20068;-89
2022/07/12 07:02:42;;;;;;;5.65;5.05;;;18.00;99.90;;;;;;6279685;22;20106;-84
2022/07/12 07:05:10;;;;;;;7.90;4.75;;;18.40;99.90;;;;;;6304426;22;20015;-83
2022/07/12 07:07:37;;;;;;;5.35;4.30;;;18.80;99.90;;;;;;6303873;22;20616;-84
2022/07/12 07:10:03;;;;;;;4.25;3.83;;;19.10;99.90;;;;;;6251685;22;20083;-83
2022/07/12 07:12:29;;;;;;;3.95;3.28;;;19.40;99.90;;;;;;6303734;22;20027;-82
2022/07/12 07:14:55;;;;;;;4.13;3.10;;;19.50;99.90;;;;;;6303236;22;20060;-83
2022/07/12 07:17:21;;;;;;;4.30;3.53;;;19.60;99.90;;;;;;6328065;22;20042;-81
2022/07/12 07:19:47;;;;;;;5.10;2.97;;;19.80;99.90;;;;;;6327095;22;20019;-82
2022/07/12 07:22:19;;;;;;;4.03;3.38;;;19.90;99.90;;;;;;6329661;22;20093;-86
2022/07/12 07:24:46;;;;;;;4.70;3.05;;;20.40;99.90;;;;;;6279435;22;20011;-86
2022/07/12 07:27:13;;;;;;;6.53;3.15;;;20.50;99.90;;;;;;6252463;22;20114;-84
2022/07/12 07:32:24;;;;;;;3.33;2.60;;;22.50;99.90;;;;;;6306639;22;20015;-86
2022/07/12 07:34:52;;;;;;;3.88;2.53;;;23.30;99.90;;;;;;6275547;22;20019;-82
2022/07/12 07:37:19;;;;;;;3.83;2.83;;;24.00;99.90;;;;;;6253343;22;20071;-84
2022/07/12 07:39:45;;;;;;;3.55;2.53;;;24.70;99.90;;;;;;6303430;22;20152;-84
2022/07/12 07:42:11;;;;;;;3.08;2.45;;;25.30;99.90;;;;;;6303080;22;20071;-84
2022/07/12 07:44:37;;;;;;;2.40;2.10;;;25.90;99.90;;;;;;6302261;22;20015;-84
2022/07/12 07:47:03;;;;;;;3.47;2.20;;;26.30;99.90;;;;;;6302683;22;20053;-82
2022/07/12 07:49:30;;;;;;;2.42;1.88;;;26.70;99.90;;;;;;6300541;22;20023;-86
2022/07/12 07:51:56;;;;;;;3.45;2.08;;;26.90;99.90;;;;;;6277555;22;20028;-84
2022/07/12 07:54:22;;;;;;;2.83;2.40;;;27.10;99.90;;;;;;6305320;22;20011;-88
2022/07/12 07:56:54;;;;;;;2.70;2.23;;;27.20;99.90;;;;;;6331697;22;20425;-85
2022/07/12 07:59:20;;;;;;;2.63;2.00;;;27.40;99.90;;;;;;6281302;22;20019;-83
2022/07/12 08:01:48;;;;;;;3.42;2.47;;;27.50;99.90;;;;;;6303688;22;20025;-84
2022/07/12 08:04:18;;;;;;;4.88;2.40;;;27.00;99.90;;;;;;6304948;22;20014;-90
2022/07/12 08:06:44;;;;;;;2.65;2.00;;;26.80;99.90;;;;;;6306973;22;20038;-87
2022/07/12 08:09:10;;;;;;;3.45;1.98;;;26.60;99.90;;;;;;6333834;22;20015;-88
2022/07/12 08:11:38;;;;;;;4.30;1.80;;;26.50;99.90;;;;;;6331837;22;20688;-91
2022/07/12 08:14:08;;;;;;;4.07;2.30;;;26.50;99.90;;;;;;6306655;22;20374;-87
2022/07/12 08:16:40;;;;;;;3.03;2.00;;;26.60;99.90;;;;;;6306096;22;20015;-87
2022/07/12 08:19:16;;;;;;;3.85;1.98;;;26.90;99.90;;;;;;6304545;22;20026;-87
2022/07/12 08:21:54;;;;;;;4.20;2.10;;;26.80;99.90;;;;;;6333981;22;20077;-84
2022/07/12 08:24:20;;;;;;;3.33;2.22;;;26.70;99.90;;;;;;6283868;22;20050;-88
2022/07/12 08:26:46;;;;;;;2.53;2.10;;;26.40;99.90;;;;;;6335394;22;20018;-90
2022/07/12 08:32:35;;;;;;;3.38;2.30;;;25.20;99.90;;;;;;6334957;22;20103;-86
2022/07/12 08:35:01;;;;;;;3.00;2.00;;;24.50;99.90;;;;;;6309417;22;20023;-82
2022/07/12 08:37:46;;;;;;;3.27;1.87;;;24.20;99.90;;;;;;6281289;22;20021;-88
2022/07/12 08:40:12;;;;;;;3.95;1.90;;;24.00;99.90;;;;;;6333101;22;20846;-83
2022/07/12 08:42:42;;;;;;;2.70;2.10;;;23.90;99.90;;;;;;6306643;22;20065;-80
2022/07/12 08:45:09;;;;;;;2.92;2.15;;;23.80;99.90;;;;;;6330578;22;20071;-82
2022/07/12 08:47:37;;;;;;;2.30;1.77;;;23.70;99.90;;;;;;6306142;22;20014;-85
2022/07/12 08:50:29;;;;;;;4.18;2.30;;;23.70;99.90;;;;;;6305705;22;20037;-84
2022/07/12 08:52:57;;;;;;;2.45;2.05;;;23.70;99.90;;;;;;6326612;22;20455;-84
2022/07/12 08:55:31;;;;;;;2.92;2.20;;;23.60;99.90;;;;;;6304754;22;20015;-84
2022/07/12 08:57:59;;;;;;;3.47;2.47;;;23.60;99.90;;;;;;6328613;22;20019;-80
2022/07/12 09:00:27;;;;;;;2.92;1.80;;;23.60;99.90;;;;;;6328977;22;20026;-85
2022/07/12 09:02:55;;;;;;;2.83;1.80;;;23.60;99.90;;;;;;6303935;22;20418;-82
2022/07/12 09:05:23;;;;;;;3.70;2.30;;;23.80;99.90;;;;;;6328971;22;20010;-81
2022/07/12 09:07:50;;;;;;;3.35;1.95;;;24.00;99.90;;;;;;6304209;22;20435;-82
2022/07/12 09:10:17;;;;;;;4.60;2.20;;;24.10;99.90;;;;;;6328739;22;20388;-82
2022/07/12 09:12:44;;;;;;;1.80;1.50;;;24.20;99.90;;;;;;6304305;22;20089;-82
2022/07/12 09:15:15;;;;;;;2.95;1.50;;;24.20;99.90;;;;;;6302558;22;20018;-83
2022/07/12 09:17:46;;;;;;;4.40;1.95;;;24.30;99.90;;;;;;6330271;22;20019;-84
2022/07/12 09:20:15;;;;;;;1.90;1.67;;;24.30;99.90;;;;;;6277738;22;20018;-83
2022/07/12 09:23:13;;;;;;;3.42;2.08;;;24.40;99.90;;;;;;6304719;22;20046;-83
2022/07/12 09:25:44;;;;;;;2.92;1.77;;;24.30;99.90;;;;;;6241359;22;20016;-85
2022/07/12 09:28:11;;;;;;;4.55;2.17;;;24.30;99.90;;;;;;6231523;22;20342;-81
2022/07/12 09:30:50;;;;;;;2.67;2.05;;;24.30;99.90;;;;;;6305331;22;20094;-82
2022/07/12 09:36:08;;;;;;;2.72;1.67;;;24.10;99.90;;;;;;6308981;22;20101;-88
2022/07/12 09:38:37;;;;;;;2.70;1.75;;;24.10;99.90;;;;;;6281899;22;20107;-85
2022/07/12 09:41:07;;;;;;;3.33;1.95;;;24.10;99.90;;;;;;6331734;22;20019;-85
2022/07/12 09:43:37;;;;;;;2.95;2.08;;;24.20;99.90;;;;;;6305177;22;20030;-85
2022/07/12 09:46:04;;;;;;;2.90;1.25;;;24.10;99.90;;;;;;6277190;22;20049;-81
2022/07/12 09:48:29;;;;;;;3.95;1.90;;;24.10;99.90;;;;;;6302230;22;20068;-80
2022/07/12 09:50:57;;;;;;;4.97;2.10;;;24.30;99.90;;;;;;6331187;22;20022;-82
2022/07/12 09:53:44;;;;;;;3.97;1.70;;;24.30;99.90;;;;;;6329597;22;20054;-81
2022/07/12 09:56:12;;;;;;;3.00;1.35;;;24.40;99.90;;;;;;6303805;22;20041;-83
2022/07/12 09:58:45;;;;;;;2.40;1.73;;;24.50;99.90;;;;;;6329045;22;20383;-82
2022/07/12 10:01:11;;;;;;;2.67;1.60;;;24.70;99.90;;;;;;6330393;22;20015;-81
2022/07/12 10:03:39;;;;;;;;;;;24.80;99.90;;;;;;6300122;22;20113;-80
2022/07/12 10:06:07;;;;;;;3.58;1.90;;;24.90;99.90;;;;;;6303211;22;20389;-81
2022/07/12 10:08:34;;;;;;;2.85;1.30;;;25.10;99.90;;;;;;6334715;22;20019;-81
2022/07/12 10:11:01;;;;;;;2.95;1.40;;;25.30;99.90;;;;;;6309104;22;20026;-80
2022/07/12 10:13:28;;;;;;;1.88;1.02;;;25.50;99.90;;;;;;6308118;22;20029;-81
2022/07/12 10:16:40;;;;;;;6.25;1.67;;;25.80;99.90;;;;;;6339055;22;20086;-82
2022/07/12 10:19:23;;;;;;;4.22;1.40;;;26.00;99.90;;;;;;6274004;22;20010;-82
2022/07/12 10:21:58;;;;;;;5.25;1.27;;;26.00;99.90;;;;;;6312292;22;20073;-81
2022/07/12 10:25:00;;;;;;;2.25;1.08;;;25.90;99.90;;;;;;6338607;22;20211;-81
2022/07/12 10:31:09;;;;;;;;;;;25.60;99.90;;;;;;6365738;22;20059;-84
2022/07/12 10:33:35;;;;;;;;;;;25.50;99.90;;;;;;6334227;22;19922;-80
2022/07/12 10:36:05;;;;;;;;;;;25.50;99.90;;;;;;6334386;22;19914;-82
2022/07/12 10:38:31;;;;;;;;;;;25.50;99.90;;;;;;6309440;22;20295;-82
2022/07/12 10:40:57;;;;;;;;;;;25.60;99.90;;;;;;6309468;22;19917;-81
2022/07/12 10:44:04;;;;;;;;;;;25.70;99.90;;;;;;6334987;22;19918;-81
2022/07/12 10:46:15;;;;;;;;;;;25.80;99.90;;;;;;6334954;22;20433;-81
2022/07/12 10:48:42;;;;;;;;;;;26.00;99.90;;;;;;6333217;22;19970;-81
2022/07/12 10:51:13;;;;;;;;;;;26.00;99.90;;;;;;6308907;22;19914;-82
2022/07/12 10:53:40;;;;;;;;;;;26.00;99.90;;;;;;6334863;22;20273;-81
2022/07/12 10:56:17;;;;;;;;;;;26.00;99.90;;;;;;6336018;22;19921;-81
2022/07/12 10:58:49;;;;;;;;;;;26.10;99.90;;;;;;6334525;22;19914;-83
2022/07/12 11:01:15;;;;;;;;;;;26.10;99.90;;;;;;6335327;22;19918;-82
2022/07/12 11:03:44;;;;;;;;;;;26.00;99.90;;;;;;6332969;22;19925;-81
2022/07/12 11:06:11;;;;;;;;;;;26.00;99.90;;;;;;6308546;22;19921;-81
2022/07/12 11:08:51;;;;;;;;;;;25.90;99.90;;;;;;6307847;22;20497;-81
2022/07/12 11:11:17;;;;;;;;;;;25.90;99.90;;;;;;6310485;22;19949;-83
2022/07/12 11:13:43;;;;;;;;;;;25.90;99.90;;;;;;6334451;22;19921;-82
2022/07/12 11:16:09;;;;;;;;;;;25.70;99.90;;;;;;6335690;22;20245;-82
2022/07/12 11:18:35;;;;;;;;;;;25.70;99.90;;;;;;6333246;22;19922;-81
2022/07/12 11:21:02;;;;;;;;;;;25.50;99.90;;;;;;6334846;22;19928;-81
2022/07/12 11:23:28;;;;;;;;;;;25.50;99.90;;;;;;6309864;22;19918;-80
2022/07/12 11:25:54;;;;;;;;;;;25.50;99.90;;;;;;6309819;22;19914;-80
2022/07/12 11:28:27;;;;;;;;;;;25.40;99.90;;;;;;6310682;22;19946;-82
2022/07/12 11:31:01;;;;;;;;;;;25.40;99.90;;;;;;6337906;22;19936;-81
2022/07/12 11:33:47;;;;;;;;;;;25.40;99.90;;;;;;6337085;22;19954;-82
2022/07/12 11:36:14;;;;;;;;;;;25.30;99.90;;;;;;6312349;22;19957;-83
2022/07/12 11:38:42;;;;;;;;;;;25.40;99.90;;;;;;6340281;22;20001;-81
2022/07/12 11:41:09;;;;;;;;;;;25.50;99.90;;;;;;6314541;22;19941;-79
2022/07/12 11:43:35;;;;;;;;;;;25.60;99.90;;;;;;6337326;22;19937;-80
2022/07/12 11:46:01;;;;;;;;;;;25.80;99.90;;;;;;6336760;22;19914;-82
2022/07/12 11:48:29;;;;;;;;;;;26.10;99.90;;;;;;6334565;22;19914;-81
2022/07/12 11:50:56;;;;;;;;;;;26.30;99.90;;;;;;6285296;22;20210;-84
2022/07/12 11:53:23;;;;;;;;;;;26.40;99.90;;;;;;6310913;22;19918;-82
2022/07/12 11:55:50;;;;;;;;;;;26.50;99.90;;;;;;6310374;22;20322;-83
2022/07/12 11:58:16;;;;;;;;;;;26.60;99.90;;;;;;6310179;22;19960;-82
2022/07/12 12:00:43;;;;;;;;;;;26.70;99.90;;;;;;6336107;22;19956;-83
2022/07/12 12:03:10;;;;;;;;;;;26.70;99.90;;;;;;6334548;22;19978;-81
2022/07/12 12:05:36;;;;;;;;;;;26.80;99.90;;;;;;6335481;22;19918;-81
2022/07/12 12:08:03;;;;;;;;;;;26.70;99.90;;;;;;6310509;22;19970;-83
2022/07/12 12:10:29;;;;;;;;;;;26.60;99.90;;;;;;6336840;22;19953;-83
2022/07/12 12:12:56;;;;;;;;;;;26.50;99.90;;;;;;6336840;22;20300;-82
2022/07/12 12:15:26;;;;;;;;;;;26.50;99.90;;;;;;6336169;22;19971;-82
2022/07/12 12:17:59;;;;;;;;;;;26.50;99.90;;;;;;6335425;22;19918;-83
2022/07/12 12:20:26;;;;;;;;;;;26.50;99.90;;;;;;6334946;22;19918;-81
2022/07/12 12:22:53;;;;;;;;;;;26.50;99.90;;;;;;6336539;22;19928;-80
2022/07/12 12:25:20;;;;;;;;;;;26.50;99.90;;;;;;6309686;22;19922;-84
2022/07/12 12:27:48;;;;;;;;;;;26.50;99.90;;;;;;6334992;22;19937;-82
2022/07/12 12:30:14;;;;;;;;;;;26.40;99.90;;;;;;6309385;22;19925;-82
2022/07/12 12:32:48;;;;;;;;;;;26.30;99.90;;;;;;6307621;22;19918;-83
2022/07/12 12:35:16;;;;;;;;;;;26.20;99.90;;;;;;6334244;22;20058;-82
2022/07/12 12:37:50;;;;;;;;;;;26.20;99.90;;;;;;6364063;22;19918;-83
2022/07/12 12:40:21;;;;;;;;;;;26.00;99.90;;;;;;6310774;22;19925;-84
2022/07/12 12:42:47;;;;;;;;;;;25.80;99.90;;;;;;6310645;22;19917;-84
2022/07/12 12:45:17;;;;;;;;;;;25.70;99.90;;;;;;6308880;22;19997;-85
2022/07/12 12:47:57;;;;;;;;;;;25.70;99.90;;;;;;6309096;22;19920;-83
2022/07/12 12:50:36;;;;;;;;;;;25.70;99.90;;;;;;6308541;22;19914;-83
2022/07/12 12:53:15;;;;;;;;;;;25.60;99.90;;;;;;6336829;22;20016;-83
2022/07/12 12:55:43;;;;;;;;;;;25.60;99.90;;;;;;6336481;22;19918;-81
2022/07/12 12:58:10;;;;;;;;;;;25.60;99.90;;;;;;6309528;22;19914;-81
2022/07/12 13:00:39;;;;;;;;;;;25.60;99.90;;;;;;6335529;22;19922;-84
2022/07/12 13:03:06;;;;;;;;;;;25.50;99.90;;;;;;6334473;22;19918;-82
2022/07/12 13:05:32;;;;;;;;;;;25.50;99.90;;;;;;6335132;22;19957;-82
2022/07/12 13:07:58;;;;;;;;;;;25.50;99.90;;;;;;6310317;22;20254;-84
2022/07/12 13:10:24;;;;;;;;;;;25.50;99.90;;;;;;6330750;22;19926;-83
2022/07/12 13:12:51;;;;;;;;;;;25.50;99.90;;;;;;6331612;22;19914;-85
2022/07/12 13:15:17;;;;;;;;;;;25.40;99.90;;;;;;6304514;22;19918;-85
2022/07/12 13:17:43;;;;;;;;;;;25.30;99.90;;;;;;6330209;22;19919;-83
2022/07/12 13:20:09;;;;;;;;;;;25.30;99.90;;;;;;6302502;22;19914;-84
2022/07/12 13:22:37;;;;;;;;;;;25.50;99.90;;;;;;6303701;22;19915;-84
2022/07/12 13:25:22;;;;;;;;;;;25.20;99.90;;;;;;6305519;22;19918;-85
2022/07/12 13:27:50;;;;;;;;;;;25.10;99.90;;;;;;6328609;22;20339;-84
2022/07/12 13:30:19;;;;;;;;;;;25.10;99.90;;;;;;6327774;22;19918;-84